sensor_id;sensor_type;location;lat;lon;timestamp;P1;durP1;ratioP1;P2;durP2;ratioP2
62582;SDS011;48641;51.676;5.808;2023-08-08T00:00:37;5.95;;;2.13;;
62582;SDS011;48641;51.676;5.808;2023-08-08T00:03:03;4.72;;;1.80;;
62582;SDS011;48641;51.676;5.808;2023-08-08T00:05:29;4.53;;;1.65;;
62582;SDS011;48641;51.676;5.808;2023-08-08T00:07:54;6.32;;;1.73;;
62582;SDS011;48641;51.676;5.808;2023-08-08T00:10:20;5.22;;;1.70;;
62582;SDS011;48641;51.676;5.808;2023-08-08T00:12:45;4.35;;;1.50;;
62582;SDS011;48641;51.676;5.808;2023-08-08T00:15:11;6.05;;;1.45;;
62582;SDS011;48641;51.676;5.808;2023-08-08T00:17:36;4.72;;;1.60;;
62582;SDS011;48641;51.676;5.808;2023-08-08T00:20:02;4.57;;;1.58;;
62582;SDS011;48641;51.676;5.808;2023-08-08T00:22:28;4.85;;;1.58;;
62582;SDS011;48641;51.676;5.808;2023-08-08T00:24:54;4.07;;;1.75;;
62582;SDS011;48641;51.676;5.808;2023-08-08T00:27:20;3.55;;;1.50;;
62582;SDS011;48641;51.676;5.808;2023-08-08T00:29:45;5.30;;;1.65;;
62582;SDS011;48641;51.676;5.808;2023-08-08T00:32:11;4.38;;;1.52;;
62582;SDS011;48641;51.676;5.808;2023-08-08T00:34:37;4.57;;;1.80;;
62582;SDS011;48641;51.676;5.808;2023-08-08T00:37:03;4.28;;;1.55;;
62582;SDS011;48641;51.676;5.808;2023-08-08T00:39:28;4.38;;;1.50;;
62582;SDS011;48641;51.676;5.808;2023-08-08T00:41:54;4.88;;;1.67;;
62582;SDS011;48641;51.676;5.808;2023-08-08T00:44:20;4.63;;;1.50;;
62582;SDS011;48641;51.676;5.808;2023-08-08T00:46:45;4.30;;;1.52;;
62582;SDS011;48641;51.676;5.808;2023-08-08T00:49:11;4.78;;;1.88;;
62582;SDS011;48641;51.676;5.808;2023-08-08T00:51:37;4.25;;;1.70;;
62582;SDS011;48641;51.676;5.808;2023-08-08T00:54:03;3.78;;;1.40;;
62582;SDS011;48641;51.676;5.808;2023-08-08T00:56:29;4.25;;;1.50;;
62582;SDS011;48641;51.676;5.808;2023-08-08T00:58:55;3.75;;;1.70;;
62582;SDS011;48641;51.676;5.808;2023-08-08T01:01:21;4.22;;;1.42;;
62582;SDS011;48641;51.676;5.808;2023-08-08T01:03:46;4.57;;;1.50;;
62582;SDS011;48641;51.676;5.808;2023-08-08T01:06:28;3.65;;;1.25;;
62582;SDS011;48641;51.676;5.808;2023-08-08T01:09:21;4.13;;;1.30;;
62582;SDS011;48641;51.676;5.808;2023-08-08T01:12:15;3.95;;;1.40;;
62582;SDS011;48641;51.676;5.808;2023-08-08T01:14:41;3.45;;;1.45;;
62582;SDS011;48641;51.676;5.808;2023-08-08T01:17:08;4.90;;;1.40;;
62582;SDS011;48641;51.676;5.808;2023-08-08T01:19:35;3.65;;;1.35;;
62582;SDS011;48641;51.676;5.808;2023-08-08T01:22:02;4.75;;;1.48;;
62582;SDS011;48641;51.676;5.808;2023-08-08T01:24:30;4.00;;;1.58;;
62582;SDS011;48641;51.676;5.808;2023-08-08T01:26:58;6.55;;;1.80;;
62582;SDS011;48641;51.676;5.808;2023-08-08T01:29:25;3.90;;;1.50;;
62582;SDS011;48641;51.676;5.808;2023-08-08T01:31:51;4.22;;;1.52;;
62582;SDS011;48641;51.676;5.808;2023-08-08T01:34:17;5.20;;;1.60;;
62582;SDS011;48641;51.676;5.808;2023-08-08T01:36:48;3.50;;;1.50;;
62582;SDS011;48641;51.676;5.808;2023-08-08T01:39:22;4.32;;;1.60;;
62582;SDS011;48641;51.676;5.808;2023-08-08T01:41:54;4.65;;;1.50;;
62582;SDS011;48641;51.676;5.808;2023-08-08T01:44:21;2.90;;;1.30;;
62582;SDS011;48641;51.676;5.808;2023-08-08T01:46:48;4.10;;;1.70;;
62582;SDS011;48641;51.676;5.808;2023-08-08T01:49:14;3.95;;;1.50;;
62582;SDS011;48641;51.676;5.808;2023-08-08T01:51:40;4.93;;;1.67;;
62582;SDS011;48641;51.676;5.808;2023-08-08T01:54:06;4.03;;;1.75;;
62582;SDS011;48641;51.676;5.808;2023-08-08T01:56:31;3.85;;;1.40;;
62582;SDS011;48641;51.676;5.808;2023-08-08T01:58:57;3.55;;;1.55;;
62582;SDS011;48641;51.676;5.808;2023-08-08T02:01:23;3.55;;;1.40;;
62582;SDS011;48641;51.676;5.808;2023-08-08T02:03:48;3.80;;;1.40;;
62582;SDS011;48641;51.676;5.808;2023-08-08T02:06:14;2.97;;;1.20;;
62582;SDS011;48641;51.676;5.808;2023-08-08T02:08:40;4.18;;;1.30;;
62582;SDS011;48641;51.676;5.808;2023-08-08T02:11:06;3.53;;;1.50;;
62582;SDS011;48641;51.676;5.808;2023-08-08T02:13:31;3.25;;;1.40;;
62582;SDS011;48641;51.676;5.808;2023-08-08T02:15:57;4.95;;;1.50;;
62582;SDS011;48641;51.676;5.808;2023-08-08T02:18:22;3.70;;;1.50;;
62582;SDS011;48641;51.676;5.808;2023-08-08T02:20:48;5.28;;;1.45;;
62582;SDS011;48641;51.676;5.808;2023-08-08T02:23:14;4.53;;;1.50;;
62582;SDS011;48641;51.676;5.808;2023-08-08T02:25:39;4.05;;;1.38;;
62582;SDS011;48641;51.676;5.808;2023-08-08T02:28:05;6.43;;;1.52;;
62582;SDS011;48641;51.676;5.808;2023-08-08T02:30:31;2.90;;;1.17;;
62582;SDS011;48641;51.676;5.808;2023-08-08T02:32:56;4.97;;;1.67;;
62582;SDS011;48641;51.676;5.808;2023-08-08T02:35:22;4.30;;;1.70;;
62582;SDS011;48641;51.676;5.808;2023-08-08T02:37:47;4.97;;;1.30;;
62582;SDS011;48641;51.676;5.808;2023-08-08T02:40:13;4.18;;;1.40;;
62582;SDS011;48641;51.676;5.808;2023-08-08T02:42:39;4.32;;;1.70;;
62582;SDS011;48641;51.676;5.808;2023-08-08T02:45:04;4.05;;;1.70;;
62582;SDS011;48641;51.676;5.808;2023-08-08T02:47:30;4.20;;;1.67;;
62582;SDS011;48641;51.676;5.808;2023-08-08T02:49:56;4.40;;;1.55;;
62582;SDS011;48641;51.676;5.808;2023-08-08T02:52:22;4.22;;;1.50;;
62582;SDS011;48641;51.676;5.808;2023-08-08T02:54:47;3.70;;;1.60;;
62582;SDS011;48641;51.676;5.808;2023-08-08T02:57:13;3.90;;;1.45;;
62582;SDS011;48641;51.676;5.808;2023-08-08T02:59:39;4.78;;;1.60;;
62582;SDS011;48641;51.676;5.808;2023-08-08T03:02:04;3.80;;;1.50;;
62582;SDS011;48641;51.676;5.808;2023-08-08T03:04:30;3.33;;;1.35;;
62582;SDS011;48641;51.676;5.808;2023-08-08T03:06:56;4.63;;;1.30;;
62582;SDS011;48641;51.676;5.808;2023-08-08T03:09:22;3.90;;;1.30;;
62582;SDS011;48641;51.676;5.808;2023-08-08T03:11:47;2.90;;;1.30;;
62582;SDS011;48641;51.676;5.808;2023-08-08T03:14:13;3.72;;;1.40;;
62582;SDS011;48641;51.676;5.808;2023-08-08T03:16:39;4.05;;;1.50;;
62582;SDS011;48641;51.676;5.808;2023-08-08T03:19:04;3.58;;;1.40;;
62582;SDS011;48641;51.676;5.808;2023-08-08T03:21:30;3.95;;;1.65;;
62582;SDS011;48641;51.676;5.808;2023-08-08T03:23:56;3.88;;;1.63;;
62582;SDS011;48641;51.676;5.808;2023-08-08T03:26:22;4.32;;;1.52;;
62582;SDS011;48641;51.676;5.808;2023-08-08T03:28:47;2.78;;;1.25;;
62582;SDS011;48641;51.676;5.808;2023-08-08T03:31:15;4.70;;;1.50;;
62582;SDS011;48641;51.676;5.808;2023-08-08T03:33:42;4.15;;;1.40;;
62582;SDS011;48641;51.676;5.808;2023-08-08T03:36:08;4.28;;;1.30;;
62582;SDS011;48641;51.676;5.808;2023-08-08T03:38:34;4.35;;;1.60;;
62582;SDS011;48641;51.676;5.808;2023-08-08T03:41:01;3.42;;;1.40;;
62582;SDS011;48641;51.676;5.808;2023-08-08T03:43:27;2.80;;;1.30;;
62582;SDS011;48641;51.676;5.808;2023-08-08T03:45:52;3.50;;;1.30;;
62582;SDS011;48641;51.676;5.808;2023-08-08T03:48:18;3.80;;;1.60;;
62582;SDS011;48641;51.676;5.808;2023-08-08T03:50:43;3.28;;;1.30;;
62582;SDS011;48641;51.676;5.808;2023-08-08T03:53:11;3.83;;;1.60;;
62582;SDS011;48641;51.676;5.808;2023-08-08T03:55:37;3.78;;;1.35;;
62582;SDS011;48641;51.676;5.808;2023-08-08T03:58:03;3.92;;;1.33;;
62582;SDS011;48641;51.676;5.808;2023-08-08T04:00:29;3.20;;;1.38;;
62582;SDS011;48641;51.676;5.808;2023-08-08T04:02:54;4.32;;;1.55;;
62582;SDS011;48641;51.676;5.808;2023-08-08T04:05:20;4.85;;;1.55;;
62582;SDS011;48641;51.676;5.808;2023-08-08T04:07:45;4.03;;;1.42;;
62582;SDS011;48641;51.676;5.808;2023-08-08T04:10:11;4.68;;;1.58;;
62582;SDS011;48641;51.676;5.808;2023-08-08T04:12:37;4.72;;;1.65;;
62582;SDS011;48641;51.676;5.808;2023-08-08T04:15:02;3.53;;;1.42;;
62582;SDS011;48641;51.676;5.808;2023-08-08T04:17:28;3.95;;;1.40;;
62582;SDS011;48641;51.676;5.808;2023-08-08T04:19:54;4.18;;;1.50;;
62582;SDS011;48641;51.676;5.808;2023-08-08T04:22:19;3.50;;;1.38;;
62582;SDS011;48641;51.676;5.808;2023-08-08T04:24:45;4.25;;;1.55;;
62582;SDS011;48641;51.676;5.808;2023-08-08T04:27:10;4.00;;;1.55;;
62582;SDS011;48641;51.676;5.808;2023-08-08T04:29:36;4.95;;;1.50;;
62582;SDS011;48641;51.676;5.808;2023-08-08T04:32:01;3.92;;;1.50;;
62582;SDS011;48641;51.676;5.808;2023-08-08T04:34:27;4.00;;;1.60;;
62582;SDS011;48641;51.676;5.808;2023-08-08T04:36:53;3.70;;;1.52;;
62582;SDS011;48641;51.676;5.808;2023-08-08T04:39:18;3.72;;;1.50;;
62582;SDS011;48641;51.676;5.808;2023-08-08T04:41:44;3.95;;;1.50;;
62582;SDS011;48641;51.676;5.808;2023-08-08T04:44:10;3.60;;;1.67;;
62582;SDS011;48641;51.676;5.808;2023-08-08T04:46:35;5.22;;;1.50;;
62582;SDS011;48641;51.676;5.808;2023-08-08T04:49:01;3.53;;;1.52;;
62582;SDS011;48641;51.676;5.808;2023-08-08T04:51:27;4.25;;;1.60;;
62582;SDS011;48641;51.676;5.808;2023-08-08T04:53:52;3.17;;;1.40;;
62582;SDS011;48641;51.676;5.808;2023-08-08T04:56:18;4.50;;;1.73;;
62582;SDS011;48641;51.676;5.808;2023-08-08T04:58:43;4.10;;;1.65;;
62582;SDS011;48641;51.676;5.808;2023-08-08T05:01:09;4.22;;;1.40;;
62582;SDS011;48641;51.676;5.808;2023-08-08T05:03:39;6.43;;;1.60;;
62582;SDS011;48641;51.676;5.808;2023-08-08T05:06:04;6.03;;;1.80;;
62582;SDS011;48641;51.676;5.808;2023-08-08T05:08:30;3.78;;;1.50;;
62582;SDS011;48641;51.676;5.808;2023-08-08T05:10:56;4.65;;;1.60;;
62582;SDS011;48641;51.676;5.808;2023-08-08T05:13:21;5.25;;;1.60;;
62582;SDS011;48641;51.676;5.808;2023-08-08T05:15:47;4.13;;;1.40;;
62582;SDS011;48641;51.676;5.808;2023-08-08T05:18:12;4.15;;;1.80;;
62582;SDS011;48641;51.676;5.808;2023-08-08T05:20:38;4.72;;;1.77;;
62582;SDS011;48641;51.676;5.808;2023-08-08T05:23:04;5.97;;;1.80;;
62582;SDS011;48641;51.676;5.808;2023-08-08T05:25:29;4.45;;;1.42;;
62582;SDS011;48641;51.676;5.808;2023-08-08T05:27:55;6.25;;;1.75;;
62582;SDS011;48641;51.676;5.808;2023-08-08T05:30:21;4.93;;;1.80;;
62582;SDS011;48641;51.676;5.808;2023-08-08T05:32:47;4.40;;;1.80;;
62582;SDS011;48641;51.676;5.808;2023-08-08T05:35:13;5.72;;;1.80;;
62582;SDS011;48641;51.676;5.808;2023-08-08T05:37:38;5.38;;;1.80;;
62582;SDS011;48641;51.676;5.808;2023-08-08T05:40:04;7.22;;;2.00;;
62582;SDS011;48641;51.676;5.808;2023-08-08T05:42:31;5.03;;;1.88;;
62582;SDS011;48641;51.676;5.808;2023-08-08T05:44:57;4.43;;;1.80;;
62582;SDS011;48641;51.676;5.808;2023-08-08T05:47:22;5.78;;;1.70;;
62582;SDS011;48641;51.676;5.808;2023-08-08T05:49:48;4.82;;;1.80;;
62582;SDS011;48641;51.676;5.808;2023-08-08T05:52:14;5.57;;;1.83;;
62582;SDS011;48641;51.676;5.808;2023-08-08T05:54:40;6.03;;;1.50;;
62582;SDS011;48641;51.676;5.808;2023-08-08T05:57:05;4.75;;;1.58;;
62582;SDS011;48641;51.676;5.808;2023-08-08T05:59:31;6.45;;;2.00;;
62582;SDS011;48641;51.676;5.808;2023-08-08T06:01:57;5.20;;;1.88;;
62582;SDS011;48641;51.676;5.808;2023-08-08T06:04:23;8.35;;;2.20;;
62582;SDS011;48641;51.676;5.808;2023-08-08T06:06:49;5.25;;;1.73;;
62582;SDS011;48641;51.676;5.808;2023-08-08T06:09:15;11.93;;;2.28;;
62582;SDS011;48641;51.676;5.808;2023-08-08T06:11:41;5.45;;;1.88;;
62582;SDS011;48641;51.676;5.808;2023-08-08T06:14:07;5.85;;;2.15;;
62582;SDS011;48641;51.676;5.808;2023-08-08T06:16:33;8.02;;;2.42;;
62582;SDS011;48641;51.676;5.808;2023-08-08T06:18:59;7.85;;;2.28;;
62582;SDS011;48641;51.676;5.808;2023-08-08T06:21:24;7.38;;;2.17;;
62582;SDS011;48641;51.676;5.808;2023-08-08T06:23:50;10.07;;;2.45;;
62582;SDS011;48641;51.676;5.808;2023-08-08T06:28:46;14.75;;;3.33;;
62582;SDS011;48641;51.676;5.808;2023-08-08T06:31:12;19.40;;;2.85;;
62582;SDS011;48641;51.676;5.808;2023-08-08T06:33:38;17.48;;;3.10;;
62582;SDS011;48641;51.676;5.808;2023-08-08T06:36:04;15.60;;;3.53;;
62582;SDS011;48641;51.676;5.808;2023-08-08T06:38:30;20.65;;;3.50;;
62582;SDS011;48641;51.676;5.808;2023-08-08T06:40:58;21.75;;;3.45;;
62582;SDS011;48641;51.676;5.808;2023-08-08T06:43:25;18.95;;;3.47;;
62582;SDS011;48641;51.676;5.808;2023-08-08T06:45:50;21.17;;;3.78;;
62582;SDS011;48641;51.676;5.808;2023-08-08T06:48:16;20.27;;;3.35;;
62582;SDS011;48641;51.676;5.808;2023-08-08T06:50:42;22.17;;;3.67;;
62582;SDS011;48641;51.676;5.808;2023-08-08T06:53:08;21.10;;;3.53;;
62582;SDS011;48641;51.676;5.808;2023-08-08T06:55:33;24.38;;;3.60;;
62582;SDS011;48641;51.676;5.808;2023-08-08T06:57:59;24.95;;;5.20;;
62582;SDS011;48641;51.676;5.808;2023-08-08T07:00:24;16.08;;;4.70;;
62582;SDS011;48641;51.676;5.808;2023-08-08T07:02:52;17.15;;;4.72;;
62582;SDS011;48641;51.676;5.808;2023-08-08T07:05:18;14.18;;;4.45;;
62582;SDS011;48641;51.676;5.808;2023-08-08T07:07:43;15.85;;;4.88;;
62582;SDS011;48641;51.676;5.808;2023-08-08T07:10:09;14.07;;;4.47;;
62582;SDS011;48641;51.676;5.808;2023-08-08T07:12:36;13.00;;;4.22;;
62582;SDS011;48641;51.676;5.808;2023-08-08T07:15:02;19.70;;;5.90;;
62582;SDS011;48641;51.676;5.808;2023-08-08T07:17:29;18.85;;;4.38;;
62582;SDS011;48641;51.676;5.808;2023-08-08T07:19:54;20.33;;;5.07;;
62582;SDS011;48641;51.676;5.808;2023-08-08T07:22:21;16.58;;;4.32;;
62582;SDS011;48641;51.676;5.808;2023-08-08T07:24:47;16.83;;;4.30;;
62582;SDS011;48641;51.676;5.808;2023-08-08T07:27:13;13.77;;;3.70;;
62582;SDS011;48641;51.676;5.808;2023-08-08T07:29:38;17.15;;;4.28;;
62582;SDS011;48641;51.676;5.808;2023-08-08T07:32:04;17.77;;;4.00;;
62582;SDS011;48641;51.676;5.808;2023-08-08T07:34:30;14.20;;;3.75;;
62582;SDS011;48641;51.676;5.808;2023-08-08T07:36:57;19.30;;;4.18;;
62582;SDS011;48641;51.676;5.808;2023-08-08T07:39:23;13.30;;;3.75;;
62582;SDS011;48641;51.676;5.808;2023-08-08T07:41:49;18.85;;;3.80;;
62582;SDS011;48641;51.676;5.808;2023-08-08T07:44:15;22.42;;;4.05;;
62582;SDS011;48641;51.676;5.808;2023-08-08T07:46:40;16.90;;;3.92;;
62582;SDS011;48641;51.676;5.808;2023-08-08T07:49:06;14.55;;;3.30;;
62582;SDS011;48641;51.676;5.808;2023-08-08T07:51:33;15.50;;;3.60;;
62582;SDS011;48641;51.676;5.808;2023-08-08T07:53:59;12.77;;;3.22;;
62582;SDS011;48641;51.676;5.808;2023-08-08T07:56:25;11.50;;;3.35;;
62582;SDS011;48641;51.676;5.808;2023-08-08T07:58:51;9.50;;;3.45;;
62582;SDS011;48641;51.676;5.808;2023-08-08T08:01:17;12.00;;;3.42;;
62582;SDS011;48641;51.676;5.808;2023-08-08T08:03:43;15.00;;;3.80;;
62582;SDS011;48641;51.676;5.808;2023-08-08T08:06:09;14.57;;;3.22;;
62582;SDS011;48641;51.676;5.808;2023-08-08T08:08:34;11.73;;;2.95;;
62582;SDS011;48641;51.676;5.808;2023-08-08T08:11:01;11.15;;;3.40;;
62582;SDS011;48641;51.676;5.808;2023-08-08T08:13:27;11.18;;;2.65;;
62582;SDS011;48641;51.676;5.808;2023-08-08T08:15:53;15.40;;;3.15;;
62582;SDS011;48641;51.676;5.808;2023-08-08T08:18:18;8.05;;;2.60;;
62582;SDS011;48641;51.676;5.808;2023-08-08T08:20:45;8.23;;;2.50;;
62582;SDS011;48641;51.676;5.808;2023-08-08T08:23:11;8.57;;;2.30;;
62582;SDS011;48641;51.676;5.808;2023-08-08T08:25:37;7.97;;;2.75;;
62582;SDS011;48641;51.676;5.808;2023-08-08T08:28:03;9.32;;;2.30;;
62582;SDS011;48641;51.676;5.808;2023-08-08T08:30:29;9.55;;;2.38;;
62582;SDS011;48641;51.676;5.808;2023-08-08T08:32:54;9.13;;;2.00;;
62582;SDS011;48641;51.676;5.808;2023-08-08T08:35:21;6.95;;;1.83;;
62582;SDS011;48641;51.676;5.808;2023-08-08T08:37:47;6.47;;;1.70;;
62582;SDS011;48641;51.676;5.808;2023-08-08T08:40:13;6.25;;;1.60;;
62582;SDS011;48641;51.676;5.808;2023-08-08T08:42:39;8.70;;;2.00;;
62582;SDS011;48641;51.676;5.808;2023-08-08T08:45:06;5.57;;;1.50;;
62582;SDS011;48641;51.676;5.808;2023-08-08T08:47:33;4.53;;;1.50;;
62582;SDS011;48641;51.676;5.808;2023-08-08T08:50:01;6.45;;;1.40;;
62582;SDS011;48641;51.676;5.808;2023-08-08T08:52:28;5.90;;;1.50;;
62582;SDS011;48641;51.676;5.808;2023-08-08T08:54:54;6.38;;;1.73;;
62582;SDS011;48641;51.676;5.808;2023-08-08T08:57:20;5.90;;;1.40;;
62582;SDS011;48641;51.676;5.808;2023-08-08T08:59:48;3.88;;;1.30;;
62582;SDS011;48641;51.676;5.808;2023-08-08T09:02:14;4.60;;;1.60;;
62582;SDS011;48641;51.676;5.808;2023-08-08T09:04:40;5.20;;;1.45;;
62582;SDS011;48641;51.676;5.808;2023-08-08T09:07:06;6.10;;;1.58;;
62582;SDS011;48641;51.676;5.808;2023-08-08T09:09:33;8.40;;;1.83;;
62582;SDS011;48641;51.676;5.808;2023-08-08T09:11:59;10.60;;;2.50;;
62582;SDS011;48641;51.676;5.808;2023-08-08T09:14:28;13.25;;;2.00;;
62582;SDS011;48641;51.676;5.808;2023-08-08T09:16:54;14.25;;;2.03;;
62582;SDS011;48641;51.676;5.808;2023-08-08T09:19:21;21.48;;;2.40;;
62582;SDS011;48641;51.676;5.808;2023-08-08T09:21:47;9.27;;;1.90;;
62582;SDS011;48641;51.676;5.808;2023-08-08T09:24:13;14.52;;;2.55;;
62582;SDS011;48641;51.676;5.808;2023-08-08T09:26:39;11.45;;;2.08;;
62582;SDS011;48641;51.676;5.808;2023-08-08T09:29:06;15.10;;;2.60;;
62582;SDS011;48641;51.676;5.808;2023-08-08T09:31:33;12.90;;;2.05;;
62582;SDS011;48641;51.676;5.808;2023-08-08T09:34:00;13.37;;;2.23;;
62582;SDS011;48641;51.676;5.808;2023-08-08T09:36:27;16.23;;;3.00;;
62582;SDS011;48641;51.676;5.808;2023-08-08T09:38:53;18.00;;;2.83;;
62582;SDS011;48641;51.676;5.808;2023-08-08T09:41:23;19.13;;;2.60;;
62582;SDS011;48641;51.676;5.808;2023-08-08T09:43:49;17.33;;;2.53;;
62582;SDS011;48641;51.676;5.808;2023-08-08T09:46:17;20.73;;;2.40;;
62582;SDS011;48641;51.676;5.808;2023-08-08T09:48:44;15.17;;;2.13;;
62582;SDS011;48641;51.676;5.808;2023-08-08T09:51:10;21.15;;;3.25;;
62582;SDS011;48641;51.676;5.808;2023-08-08T09:53:36;23.92;;;3.65;;
62582;SDS011;48641;51.676;5.808;2023-08-08T09:56:03;22.13;;;2.97;;
62582;SDS011;48641;51.676;5.808;2023-08-08T09:58:30;16.85;;;2.50;;
62582;SDS011;48641;51.676;5.808;2023-08-08T10:00:56;21.88;;;3.92;;
62582;SDS011;48641;51.676;5.808;2023-08-08T10:03:21;25.73;;;3.40;;
62582;SDS011;48641;51.676;5.808;2023-08-08T10:05:48;23.00;;;3.42;;
62582;SDS011;48641;51.676;5.808;2023-08-08T10:08:16;15.48;;;3.00;;
62582;SDS011;48641;51.676;5.808;2023-08-08T10:13:09;27.52;;;3.95;;
62582;SDS011;48641;51.676;5.808;2023-08-08T10:15:38;23.98;;;3.00;;
62582;SDS011;48641;51.676;5.808;2023-08-08T10:18:04;26.73;;;3.05;;
62582;SDS011;48641;51.676;5.808;2023-08-08T10:20:31;23.10;;;2.97;;
62582;SDS011;48641;51.676;5.808;2023-08-08T10:23:02;24.63;;;3.20;;
62582;SDS011;48641;51.676;5.808;2023-08-08T10:25:29;30.20;;;2.88;;
62582;SDS011;48641;51.676;5.808;2023-08-08T10:30:29;43.33;;;4.80;;
62582;SDS011;48641;51.676;5.808;2023-08-08T10:32:56;29.83;;;3.03;;
62582;SDS011;48641;51.676;5.808;2023-08-08T10:35:22;56.10;;;5.18;;
62582;SDS011;48641;51.676;5.808;2023-08-08T10:37:53;38.03;;;4.38;;
62582;SDS011;48641;51.676;5.808;2023-08-08T10:40:19;29.52;;;4.00;;
62582;SDS011;48641;51.676;5.808;2023-08-08T10:42:46;33.30;;;4.60;;
62582;SDS011;48641;51.676;5.808;2023-08-08T10:45:12;23.25;;;3.10;;
62582;SDS011;48641;51.676;5.808;2023-08-08T10:47:40;30.27;;;3.63;;
62582;SDS011;48641;51.676;5.808;2023-08-08T10:50:10;26.63;;;3.15;;
62582;SDS011;48641;51.676;5.808;2023-08-08T10:52:54;21.15;;;3.60;;
62582;SDS011;48641;51.676;5.808;2023-08-08T10:55:41;30.08;;;3.92;;
62582;SDS011;48641;51.676;5.808;2023-08-08T10:58:07;17.77;;;2.85;;
62582;SDS011;48641;51.676;5.808;2023-08-08T11:00:35;16.40;;;2.95;;
62582;SDS011;48641;51.676;5.808;2023-08-08T11:03:07;20.40;;;2.92;;
62582;SDS011;48641;51.676;5.808;2023-08-08T11:05:34;23.85;;;3.67;;
62582;SDS011;48641;51.676;5.808;2023-08-08T11:08:02;16.55;;;3.22;;
62582;SDS011;48641;51.676;5.808;2023-08-08T11:10:29;27.23;;;3.83;;
62582;SDS011;48641;51.676;5.808;2023-08-08T11:15:28;20.33;;;3.00;;
62582;SDS011;48641;51.676;5.808;2023-08-08T11:17:57;21.45;;;3.05;;
62582;SDS011;48641;51.676;5.808;2023-08-08T11:20:24;22.23;;;3.58;;
62582;SDS011;48641;51.676;5.808;2023-08-08T11:22:51;17.70;;;2.50;;
62582;SDS011;48641;51.676;5.808;2023-08-08T11:25:17;15.68;;;2.85;;
62582;SDS011;48641;51.676;5.808;2023-08-08T11:27:49;18.75;;;3.75;;
62582;SDS011;48641;51.676;5.808;2023-08-08T11:30:16;22.42;;;2.90;;
62582;SDS011;48641;51.676;5.808;2023-08-08T11:32:42;23.77;;;2.47;;
62582;SDS011;48641;51.676;5.808;2023-08-08T11:35:08;22.35;;;2.72;;
62582;SDS011;48641;51.676;5.808;2023-08-08T11:37:34;23.77;;;2.90;;
62582;SDS011;48641;51.676;5.808;2023-08-08T11:40:00;20.95;;;2.60;;
62582;SDS011;48641;51.676;5.808;2023-08-08T11:42:26;18.10;;;2.70;;
62582;SDS011;48641;51.676;5.808;2023-08-08T11:44:52;20.20;;;3.03;;
62582;SDS011;48641;51.676;5.808;2023-08-08T11:47:24;15.20;;;2.53;;
62582;SDS011;48641;51.676;5.808;2023-08-08T11:49:51;16.40;;;2.47;;
62582;SDS011;48641;51.676;5.808;2023-08-08T11:52:18;13.30;;;2.72;;
62582;SDS011;48641;51.676;5.808;2023-08-08T11:54:43;20.92;;;2.60;;
62582;SDS011;48641;51.676;5.808;2023-08-08T11:57:09;16.08;;;2.60;;
62582;SDS011;48641;51.676;5.808;2023-08-08T11:59:35;14.55;;;2.53;;
62582;SDS011;48641;51.676;5.808;2023-08-08T12:02:01;16.92;;;2.35;;
62582;SDS011;48641;51.676;5.808;2023-08-08T12:04:27;16.30;;;2.53;;
62582;SDS011;48641;51.676;5.808;2023-08-08T12:07:00;16.17;;;2.85;;
62582;SDS011;48641;51.676;5.808;2023-08-08T12:09:33;10.90;;;2.20;;
62582;SDS011;48641;51.676;5.808;2023-08-08T12:12:00;15.60;;;2.17;;
62582;SDS011;48641;51.676;5.808;2023-08-08T12:14:26;11.50;;;2.30;;
62582;SDS011;48641;51.676;5.808;2023-08-08T12:16:53;17.85;;;2.58;;
62582;SDS011;48641;51.676;5.808;2023-08-08T12:19:22;15.88;;;3.10;;
62582;SDS011;48641;51.676;5.808;2023-08-08T12:21:48;14.45;;;2.30;;
62582;SDS011;48641;51.676;5.808;2023-08-08T12:24:14;19.65;;;2.90;;
62582;SDS011;48641;51.676;5.808;2023-08-08T12:26:39;12.88;;;2.63;;
62582;SDS011;48641;51.676;5.808;2023-08-08T12:29:05;11.02;;;1.80;;
62582;SDS011;48641;51.676;5.808;2023-08-08T12:31:30;14.25;;;2.50;;
62582;SDS011;48641;51.676;5.808;2023-08-08T12:33:56;8.48;;;1.85;;
62582;SDS011;48641;51.676;5.808;2023-08-08T12:36:22;10.95;;;1.70;;
62582;SDS011;48641;51.676;5.808;2023-08-08T12:38:47;7.35;;;1.15;;
62582;SDS011;48641;51.676;5.808;2023-08-08T12:41:13;11.60;;;1.50;;
62582;SDS011;48641;51.676;5.808;2023-08-08T12:43:39;5.50;;;1.30;;
62582;SDS011;48641;51.676;5.808;2023-08-08T12:46:05;8.40;;;1.20;;
62582;SDS011;48641;51.676;5.808;2023-08-08T12:48:30;5.82;;;1.30;;
62582;SDS011;48641;51.676;5.808;2023-08-08T12:50:56;10.10;;;1.65;;
62582;SDS011;48641;51.676;5.808;2023-08-08T12:53:21;9.25;;;1.20;;
62582;SDS011;48641;51.676;5.808;2023-08-08T12:55:47;11.93;;;1.60;;
62582;SDS011;48641;51.676;5.808;2023-08-08T12:58:13;5.47;;;1.30;;
62582;SDS011;48641;51.676;5.808;2023-08-08T13:00:38;5.97;;;1.20;;
62582;SDS011;48641;51.676;5.808;2023-08-08T13:03:04;8.77;;;1.27;;
62582;SDS011;48641;51.676;5.808;2023-08-08T13:05:30;6.75;;;1.35;;
62582;SDS011;48641;51.676;5.808;2023-08-08T13:07:55;43.25;;;2.88;;
62582;SDS011;48641;51.676;5.808;2023-08-08T13:10:21;21.88;;;2.17;;
62582;SDS011;48641;51.676;5.808;2023-08-08T13:12:47;14.02;;;1.67;;
62582;SDS011;48641;51.676;5.808;2023-08-08T13:15:13;7.13;;;0.90;;
62582;SDS011;48641;51.676;5.808;2023-08-08T13:17:39;6.95;;;1.52;;
62582;SDS011;48641;51.676;5.808;2023-08-08T13:20:05;6.78;;;1.10;;
62582;SDS011;48641;51.676;5.808;2023-08-08T13:22:31;6.30;;;1.02;;
62582;SDS011;48641;51.676;5.808;2023-08-08T13:24:56;7.03;;;0.82;;
62582;SDS011;48641;51.676;5.808;2023-08-08T13:27:22;5.97;;;1.20;;
62582;SDS011;48641;51.676;5.808;2023-08-08T13:29:47;6.88;;;1.00;;
62582;SDS011;48641;51.676;5.808;2023-08-08T13:32:13;10.15;;;1.17;;
62582;SDS011;48641;51.676;5.808;2023-08-08T13:34:39;4.35;;;0.85;;
62582;SDS011;48641;51.676;5.808;2023-08-08T13:37:04;4.95;;;0.90;;
62582;SDS011;48641;51.676;5.808;2023-08-08T13:39:30;3.35;;;0.68;;
62582;SDS011;48641;51.676;5.808;2023-08-08T13:41:55;4.88;;;1.05;;
62582;SDS011;48641;51.676;5.808;2023-08-08T13:44:22;4.35;;;1.00;;
62582;SDS011;48641;51.676;5.808;2023-08-08T13:46:48;8.35;;;0.82;;
62582;SDS011;48641;51.676;5.808;2023-08-08T13:49:14;9.73;;;1.00;;
62582;SDS011;48641;51.676;5.808;2023-08-08T13:51:40;102.28;;;8.15;;
62582;SDS011;48641;51.676;5.808;2023-08-08T13:54:06;50.88;;;3.88;;
62582;SDS011;48641;51.676;5.808;2023-08-08T13:56:31;15.35;;;2.17;;
62582;SDS011;48641;51.676;5.808;2023-08-08T13:58:57;18.13;;;2.00;;
62582;SDS011;48641;51.676;5.808;2023-08-08T14:01:23;9.20;;;1.95;;
62582;SDS011;48641;51.676;5.808;2023-08-08T14:03:48;7.65;;;1.33;;
62582;SDS011;48641;51.676;5.808;2023-08-08T14:06:14;5.10;;;1.10;;
62582;SDS011;48641;51.676;5.808;2023-08-08T14:08:39;13.40;;;1.70;;
62582;SDS011;48641;51.676;5.808;2023-08-08T14:11:05;11.70;;;1.98;;
62582;SDS011;48641;51.676;5.808;2023-08-08T14:13:31;9.63;;;1.70;;
62582;SDS011;48641;51.676;5.808;2023-08-08T14:15:56;7.85;;;1.38;;
62582;SDS011;48641;51.676;5.808;2023-08-08T14:18:22;13.40;;;1.90;;
62582;SDS011;48641;51.676;5.808;2023-08-08T14:20:48;9.68;;;1.45;;
62582;SDS011;48641;51.676;5.808;2023-08-08T14:23:14;20.30;;;1.92;;
62582;SDS011;48641;51.676;5.808;2023-08-08T14:25:41;18.70;;;1.65;;
62582;SDS011;48641;51.676;5.808;2023-08-08T14:28:06;11.50;;;1.33;;
62582;SDS011;48641;51.676;5.808;2023-08-08T14:30:32;11.65;;;1.48;;
62582;SDS011;48641;51.676;5.808;2023-08-08T14:32:58;7.75;;;1.48;;
62582;SDS011;48641;51.676;5.808;2023-08-08T14:35:23;10.23;;;1.20;;
62582;SDS011;48641;51.676;5.808;2023-08-08T14:37:49;9.65;;;1.60;;
62582;SDS011;48641;51.676;5.808;2023-08-08T14:40:15;12.85;;;1.55;;
62582;SDS011;48641;51.676;5.808;2023-08-08T14:42:41;4.97;;;1.10;;
62582;SDS011;48641;51.676;5.808;2023-08-08T14:45:06;7.43;;;1.13;;
62582;SDS011;48641;51.676;5.808;2023-08-08T14:47:32;8.55;;;1.30;;